createdAt,value
2022-08-03T00:00:14.210Z,14
2022-08-03T00:05:18.747Z,14
2022-08-03T00:10:22.301Z,14
2022-08-03T00:15:26.816Z,13.9
2022-08-03T00:20:31.341Z,14
2022-08-03T00:25:34.868Z,13.9
2022-08-03T00:30:39.422Z,13.9
2022-08-03T00:35:50.920Z,13.9
2022-08-03T00:40:47.510Z,13.8
2022-08-03T00:45:52.025Z,13.8
2022-08-03T00:50:56.575Z,13.8
2022-08-03T00:56:00.140Z,13.8
2022-08-03T01:01:05.016Z,13.8
2022-08-03T01:06:09.169Z,13.7
2022-08-03T01:11:13.698Z,13.7
2022-08-03T01:16:17.291Z,13.6
2022-08-03T01:21:21.802Z,13.7
2022-08-03T01:26:26.378Z,13.6
2022-08-03T01:31:29.924Z,13.6
2022-08-03T01:36:34.409Z,13.6
2022-08-03T01:41:38.961Z,13.5
2022-08-03T01:46:47.551Z,13.6
2022-08-03T01:52:03.681Z,13.5
2022-08-03T01:56:51.569Z,13.5
2022-08-03T02:02:29.039Z,13.5
2022-08-03T02:07:03.107Z,13.5
2022-08-03T02:12:04.187Z,13.4
2022-08-03T02:17:08.707Z,13.4
2022-08-03T02:22:12.329Z,13.4
2022-08-03T02:27:16.815Z,13.4
2022-08-03T02:32:21.349Z,13.3
2022-08-03T02:37:24.889Z,13.3
2022-08-03T02:42:29.449Z,13.4
2022-08-03T02:47:53.864Z,13.3
2022-08-03T02:52:37.520Z,13.3
2022-08-03T02:57:42.057Z,13.3
2022-08-03T03:02:45.580Z,13.3
2022-08-03T03:07:53.024Z,13.3
2022-08-03T03:12:54.685Z,13.2
2022-08-03T03:17:58.200Z,13.3
2022-08-03T03:23:02.787Z,13.2
2022-08-03T03:28:07.301Z,13.2
2022-08-03T03:33:10.840Z,13.2
2022-08-03T03:38:15.381Z,13.2
2022-08-03T03:43:19.921Z,13.2
2022-08-03T03:48:23.462Z,13.1
2022-08-03T03:53:28.007Z,13.1
2022-08-03T03:58:32.596Z,13.1
2022-08-03T04:03:37.073Z,13
2022-08-03T04:08:40.618Z,13
2022-08-03T04:13:45.128Z,13
2022-08-03T04:18:49.686Z,13
2022-08-03T04:23:53.203Z,13.1
2022-08-03T04:28:57.834Z,13.1
2022-08-03T04:34:02.296Z,13.1
2022-08-03T04:39:05.864Z,13.2
2022-08-03T04:44:10.354Z,13.1
2022-08-03T04:49:14.963Z,13.2
2022-08-03T04:54:18.470Z,13.2
2022-08-03T04:59:22.995Z,13.2
2022-08-03T05:04:27.514Z,13.2
2022-08-03T05:09:49.942Z,13.1
2022-08-03T05:14:35.591Z,13.2
2022-08-03T05:19:40.134Z,13.2
2022-08-03T05:24:44.683Z,13.2
2022-08-03T05:29:48.233Z,13.4
2022-08-03T05:34:52.779Z,13.5
2022-08-03T05:39:57.296Z,13.6
2022-08-03T05:45:00.856Z,13.6
2022-08-03T05:50:05.396Z,13.7
2022-08-03T05:55:09.938Z,13.9
2022-08-03T06:00:13.467Z,13.9
2022-08-03T06:05:18.005Z,14
2022-08-03T06:10:35.257Z,14
2022-08-03T06:15:27.098Z,14.2
2022-08-03T06:20:30.597Z,14.2
2022-08-03T06:25:35.158Z,14.1
2022-08-03T06:30:39.701Z,14.3
2022-08-03T06:35:43.281Z,14.2
2022-08-03T06:40:47.812Z,14.6
2022-08-03T06:45:52.310Z,14.5
2022-08-03T06:50:55.840Z,14.6
2022-08-03T06:56:00.387Z,15
2022-08-03T07:01:04.978Z,15
2022-08-03T07:06:08.488Z,15
2022-08-03T07:11:13.081Z,15
2022-08-03T07:16:16.570Z,15.1
2022-08-03T07:21:21.103Z,15.5
2022-08-03T07:26:25.663Z,15.5
2022-08-03T07:31:29.159Z,15.8
2022-08-03T07:36:33.729Z,16
2022-08-03T07:41:38.263Z,16
2022-08-03T07:46:41.810Z,16
2022-08-03T07:51:46.380Z,16.3
2022-08-03T07:56:50.858Z,16.3
2022-08-03T08:01:55.430Z,16.3
2022-08-03T08:06:58.983Z,16.7
2022-08-03T08:12:03.528Z,17.2
2022-08-03T08:17:08.058Z,16.8
2022-08-03T08:22:11.576Z,16.4
2022-08-03T08:27:16.126Z,16.9
2022-08-03T08:32:20.686Z,16.5
2022-08-03T08:37:24.243Z,16.8
2022-08-03T08:42:28.789Z,17.1
2022-08-03T08:47:50.942Z,17.8
2022-08-03T08:52:36.869Z,17
2022-08-03T08:57:43.201Z,17.3
2022-08-03T09:02:45.945Z,16.8
2022-08-03T09:07:50.456Z,16.3
2022-08-03T09:12:54.042Z,17.1
2022-08-03T09:17:58.566Z,17.7
2022-08-03T09:23:14.061Z,16.8
2022-08-03T09:28:06.648Z,16.8
2022-08-03T09:33:11.219Z,17.2
2022-08-03T09:38:15.743Z,17
2022-08-03T09:43:19.305Z,16.5
2022-08-03T09:48:23.869Z,16.1
2022-08-03T09:53:28.391Z,17.5
2022-08-03T09:58:31.916Z,17.6
2022-08-03T10:03:36.501Z,17.4
2022-08-03T10:08:40.994Z,18
2022-08-03T10:13:45.561Z,18.2
2022-08-03T10:18:49.115Z,15.8
2022-08-03T10:23:53.681Z,16.3
2022-08-03T10:28:58.195Z,17
2022-08-03T10:34:01.778Z,17.3
2022-08-03T10:39:16.086Z,17.5
2022-08-03T10:44:10.831Z,17.4
2022-08-03T10:49:14.462Z,16.1
2022-08-03T10:54:18.893Z,16.6
2022-08-03T10:59:27.509Z,16.7
2022-08-03T11:04:27.026Z,16.6
2022-08-03T11:09:31.549Z,17.4
2022-08-03T11:14:36.128Z,17.1
2022-08-03T11:19:56.701Z,16.1
2022-08-03T11:24:44.240Z,16.1
2022-08-03T11:29:47.799Z,16.4
2022-08-03T11:34:52.315Z,17
2022-08-03T11:39:56.857Z,17.1
2022-08-03T11:45:00.403Z,16.6
2022-08-03T11:50:04.975Z,16.7
2022-08-03T11:55:09.492Z,17.4
2022-08-03T12:00:14.023Z,16.3
2022-08-03T12:05:17.601Z,17.1
2022-08-03T12:10:22.142Z,17.7
2022-08-03T12:15:26.669Z,18.4
2022-08-03T12:20:34.858Z,19
2022-08-03T12:25:38.572Z,19
2022-08-03T12:30:39.325Z,17.3
2022-08-03T12:35:52.150Z,17.1
2022-08-03T12:40:47.406Z,15.9
2022-08-03T12:45:51.908Z,16.3
2022-08-03T12:50:55.479Z,17.3
2022-08-03T12:56:05.820Z,18
2022-08-03T13:01:05.066Z,17.6
2022-08-03T13:06:09.075Z,18.3
2022-08-03T13:11:12.665Z,16.7
2022-08-03T13:16:19.300Z,18.7
2022-08-03T13:21:21.728Z,18.2
2022-08-03T13:26:25.301Z,17.4
2022-08-03T13:31:29.796Z,17.6
2022-08-03T13:36:59.246Z,16.9
2022-08-03T13:41:37.951Z,17.6
2022-08-03T13:46:42.445Z,17.6
2022-08-03T13:51:47.010Z,18
2022-08-03T13:56:50.533Z,16.7
2022-08-03T14:01:55.911Z,17.7
2022-08-03T14:06:59.646Z,17.9
2022-08-03T14:12:08.357Z,18.3
2022-08-03T14:17:07.723Z,18.8
2022-08-03T14:22:12.284Z,17.7
2022-08-03T14:27:16.846Z,18
2022-08-03T14:32:20.399Z,17.5
2022-08-03T14:37:24.933Z,16.7
2022-08-03T14:42:29.470Z,16.2
2022-08-03T14:47:33.063Z,16.8
2022-08-03T14:52:37.510Z,17.2
2022-08-03T14:57:42.081Z,18.3
2022-08-03T15:02:45.694Z,18.3
2022-08-03T15:07:50.180Z,18
2022-08-03T15:12:54.744Z,18.6
2022-08-03T15:18:00.101Z,18.9
2022-08-03T15:23:02.817Z,18.2
2022-08-03T15:28:07.341Z,17.8
2022-08-03T15:33:11.898Z,18.3
2022-08-03T15:38:15.450Z,18.3
2022-08-03T15:43:19.006Z,18.2
2022-08-03T15:48:26.591Z,18.1
2022-08-03T15:53:28.063Z,18.3
2022-08-03T15:59:09.886Z,18
2022-08-03T16:03:36.197Z,18.3
2022-08-03T16:08:40.710Z,17.7
2022-08-03T16:14:11.895Z,17.3
2022-08-03T16:18:48.786Z,17.7
2022-08-03T16:23:53.342Z,17.6
2022-08-03T16:28:57.895Z,17.5
2022-08-03T16:34:01.443Z,17.8
2022-08-03T16:39:06.042Z,18
2022-08-03T16:44:10.501Z,18.1
2022-08-03T16:49:14.089Z,16.6
2022-08-03T16:54:18.626Z,17.2
2022-08-03T16:59:23.182Z,17.1
2022-08-03T17:04:27.703Z,17.2
2022-08-03T17:09:38.199Z,17.7
2022-08-03T17:14:35.883Z,17.6
2022-08-03T17:19:40.332Z,18
2022-08-03T17:24:43.874Z,17.9
2022-08-03T17:29:48.394Z,18.2
2022-08-03T17:34:52.950Z,17.5
2022-08-03T17:45:01.737Z,17.8
2022-08-03T17:50:09.663Z,17.7
2022-08-03T17:55:58.553Z,17.9
2022-08-03T18:00:13.665Z,17.6
2022-08-03T18:05:18.213Z,17.5
2022-08-03T18:10:22.751Z,17
2022-08-03T18:15:26.306Z,16.7
2022-08-03T18:20:33.188Z,16.7
2022-08-03T18:30:39.115Z,16.6
2022-08-03T18:35:53.841Z,16.6
2022-08-03T18:40:48.710Z,16.7
2022-08-03T18:45:56.416Z,16.4
2022-08-03T18:50:56.065Z,16.4
2022-08-03T18:56:02.228Z,16.2
2022-08-03T19:01:04.164Z,16
2022-08-03T19:06:14.552Z,16
2022-08-03T19:11:13.226Z,16
2022-08-03T19:16:18.144Z,16
2022-08-03T19:21:21.306Z,16
2022-08-03T19:26:30.940Z,16
2022-08-03T19:31:31.221Z,15.9
2022-08-03T19:36:33.920Z,15.9
2022-08-03T19:41:42.152Z,15.8
2022-08-03T19:46:43.001Z,15.8
2022-08-03T19:51:58.391Z,15.7
2022-08-03T19:56:51.059Z,15.7
2022-08-03T20:01:54.782Z,15.7
2022-08-03T20:06:59.149Z,15.7
2022-08-03T20:12:03.701Z,15.8
2022-08-03T20:17:09.170Z,15.8
2022-08-03T20:22:17.972Z,15.8
2022-08-03T20:27:16.316Z,15.8
2022-08-03T20:32:24.356Z,15.7
2022-08-03T20:37:24.439Z,15.7
2022-08-03T20:42:28.931Z,15.6
2022-08-03T20:47:32.520Z,15.7
2022-08-03T20:52:37.023Z,15.7
2022-08-03T20:57:41.548Z,15.6
2022-08-03T21:02:46.100Z,15.6
2022-08-03T21:08:06.180Z,15.6
2022-08-03T21:12:54.227Z,15.7
2022-08-03T21:12:54.515Z,17.7
2022-08-03T21:13:05.029Z,16.7
2022-08-03T21:17:58.722Z,15.5
2022-08-03T21:23:02.268Z,15.5
2022-08-03T21:28:06.855Z,15.6
2022-08-03T21:33:11.351Z,15.5
2022-08-03T21:38:14.904Z,15.6
2022-08-03T21:43:19.482Z,15.5
2022-08-03T21:48:23.979Z,15.4
2022-08-03T21:53:28.087Z,15.5
2022-08-03T21:58:32.061Z,15.5
2022-08-03T22:03:53.071Z,15.4
2022-08-03T22:08:41.122Z,15.4
2022-08-03T22:13:44.804Z,15.3
2022-08-03T22:18:49.201Z,15.3
2022-08-03T22:23:53.737Z,15.2
2022-08-03T22:28:57.318Z,15.3
2022-08-03T22:34:01.796Z,15.2
2022-08-03T22:39:06.443Z,15.1
2022-08-03T22:44:09.915Z,15.1
2022-08-03T22:49:14.538Z,15
2022-08-03T22:54:18.957Z,15
2022-08-03T22:59:39.011Z,15
2022-08-03T23:04:27.058Z,15
2022-08-03T23:09:31.561Z,15
2022-08-03T23:14:36.132Z,15
2022-08-03T23:19:44.607Z,14.9
2022-08-03T23:24:44.390Z,14.9
2022-08-03T23:29:48.758Z,14.9
2022-08-03T23:34:52.287Z,14.9
2022-08-03T23:39:56.822Z,14.9
2022-08-03T23:45:05.503Z,14.9
2022-08-03T23:50:04.877Z,14.8
2022-08-03T23:55:09.410Z,14.8
